Time;durP1;ratioP1;P1;durP2;ratioP2;P2;SDS_P1;SDS_P2;PMS_P1;PMS_P2;Temp;Humidity;BMP_temperature;BMP_pressure;BME280_temperature;BME280_humidity;BME280_pressure;Samples;Min_cycle;Max_cycle;Signal;HPM_P1;HPM_P2
2021/12/02 00:02:36;;;;;;;9.52;2.55;;;;;;;;;;6294459;28;20061;-79
2021/12/02 00:05:38;;;;;;;4.80;2.15;;;;;;;;;;6291105;28;20044;-79
2021/12/02 00:08:40;;;;;;;6.60;2.90;;;;;;;;;;6289984;28;20043;-79
2021/12/02 00:11:42;;;;;;;5.47;2.50;;;;;;;;;;6273036;28;20553;-79
2021/12/02 00:14:45;;;;;;;5.82;2.38;;;;;;;;;;6280659;28;20045;-79
2021/12/02 00:17:54;;;;;;;6.95;2.40;;;;;;;;;;6293015;28;20119;-78
2021/12/02 00:21:09;;;;;;;6.60;2.22;;;;;;;;;;6275469;28;20131;-79
2021/12/02 00:24:18;;;;;;;9.40;3.35;;;;;;;;;;6293755;28;20048;-79
2021/12/02 00:27:22;;;;;;;4.95;2.50;;;;;;;;;;6256729;28;20033;-79
2021/12/02 00:30:24;;;;;;;;;;;;;;;;;;6294916;28;20057;-79
2021/12/02 00:33:28;;;;;;;4.35;2.00;;;;;;;;;;6292055;28;19920;-79
2021/12/02 00:36:32;;;;;;;4.72;2.10;;;;;;;;;;6271743;28;20047;-79
2021/12/02 00:39:34;;;;;;;3.42;1.95;;;;;;;;;;6278351;28;20037;-79
2021/12/02 00:42:38;;;;;;;8.10;2.10;;;;;;;;;;6274293;28;20049;-79
2021/12/02 00:45:42;;;;;;;7.00;2.60;;;;;;;;;;6294987;28;20108;-79
2021/12/02 00:48:45;;;;;;;5.97;1.90;;;;;;;;;;6277624;28;20063;-79
2021/12/02 00:51:53;;;;;;;5.38;1.80;;;;;;;;;;6287338;28;20125;-79
2021/12/02 00:54:55;;;;;;;10.32;2.63;;;;;;;;;;6273001;28;20267;-79
2021/12/02 00:57:57;;;;;;;6.10;2.00;;;;;;;;;;6265852;28;20108;-79
2021/12/02 01:01:00;;;;;;;7.25;2.20;;;;;;;;;;6266457;28;20424;-79
2021/12/02 01:04:15;;;;;;;9.98;2.28;;;;;;;;;;6265647;28;20044;-79
2021/12/02 01:07:17;;;;;;;8.00;2.50;;;;;;;;;;6258445;28;20124;-79
2021/12/02 01:10:20;;;;;;;8.23;2.30;;;;;;;;;;6270379;28;20068;-79
2021/12/02 01:13:22;;;;;;;5.28;2.08;;;;;;;;;;6276906;28;20140;-78
2021/12/02 01:16:24;;;;;;;6.00;1.70;;;;;;;;;;6230838;28;20120;-79
2021/12/02 01:19:27;;;;;;;;;;;;;;;;;;6267309;28;20048;-79
2021/12/02 01:22:32;;;;;;;5.03;2.00;;;;;;;;;;6253562;28;19948;-80
2021/12/02 01:25:34;;;;;;;7.65;2.40;;;;;;;;;;6279147;28;20036;-79
2021/12/02 01:28:37;;;;;;;9.25;2.35;;;;;;;;;;6293413;28;20055;-79
2021/12/02 01:31:39;;;;;;;9.63;2.78;;;;;;;;;;6274512;28;20051;-79
2021/12/02 01:34:45;;;;;;;8.27;2.28;;;;;;;;;;6257161;28;20128;-78
2021/12/02 01:37:47;;;;;;;6.13;2.10;;;;;;;;;;6270789;28;20040;-79
2021/12/02 01:40:49;;;;;;;7.15;2.72;;;;;;;;;;6278577;28;20127;-79
2021/12/02 01:43:53;;;;;;;4.05;2.00;;;;;;;;;;6291686;28;20044;-79
2021/12/02 01:46:58;;;;;;;11.23;2.83;;;;;;;;;;6261602;28;20386;-78
2021/12/02 01:50:03;;;;;;;7.72;2.50;;;;;;;;;;6273748;28;20127;-79
2021/12/02 01:53:06;;;;;;;8.93;2.30;;;;;;;;;;6274198;28;20044;-79
2021/12/02 01:56:13;;;;;;;4.97;1.95;;;;;;;;;;6296319;28;20047;-78
2021/12/02 01:59:18;;;;;;;11.85;2.80;;;;;;;;;;6295542;28;20140;-79
2021/12/02 02:02:20;;;;;;;10.80;2.85;;;;;;;;;;6278560;28;20186;-79
2021/12/02 02:05:22;;;;;;;5.68;1.92;;;;;;;;;;6294040;28;20077;-79
2021/12/02 02:08:25;;;;;;;4.45;2.38;;;;;;;;;;6277412;28;20049;-78
2021/12/02 02:11:29;;;;;;;7.68;2.35;;;;;;;;;;6265170;28;20044;-79
2021/12/02 02:14:31;;;;;;;3.83;2.28;;;;;;;;;;6252768;28;20120;-80
2021/12/02 02:17:41;;;;;;;5.90;1.90;;;;;;;;;;6276209;28;20626;-79
2021/12/02 02:21:02;;;;;;;6.50;2.10;;;;;;;;;;6294732;28;20101;-79
2021/12/02 02:24:06;;;;;;;6.07;2.15;;;;;;;;;;6293696;28;20237;-78
2021/12/02 02:27:07;;;;;;;8.05;2.08;;;;;;;;;;6273914;28;20050;-79
2021/12/02 02:30:10;;;;;;;5.25;2.00;;;;;;;;;;6273643;28;20052;-79
2021/12/02 02:33:12;;;;;;;6.55;2.40;;;;;;;;;;6273650;28;20037;-79
2021/12/02 02:36:15;;;;;;;8.50;2.35;;;;;;;;;;6261557;28;20074;-78
2021/12/02 02:39:19;;;;;;;6.93;1.90;;;;;;;;;;6287881;28;20078;-79
2021/12/02 02:42:23;;;;;;;7.70;2.40;;;;;;;;;;6287267;28;20051;-80
2021/12/02 02:45:25;;;;;;;9.15;2.40;;;;;;;;;;6297377;28;20099;-79
2021/12/02 02:48:29;;;;;;;10.70;3.15;;;;;;;;;;6296739;28;20115;-79
2021/12/02 02:51:32;;;;;;;4.68;2.03;;;;;;;;;;6260984;28;20040;-79
2021/12/02 02:54:34;;;;;;;12.00;2.50;;;;;;;;;;6293517;28;20115;-79
2021/12/02 02:57:45;;;;;;;8.77;2.15;;;;;;;;;;6278132;28;20040;-79
2021/12/02 03:00:55;;;;;;;8.98;2.33;;;;;;;;;;6292691;28;20064;-79
2021/12/02 03:04:06;;;;;;;8.98;2.30;;;;;;;;;;6269961;28;20045;-79
2021/12/02 03:07:19;;;;;;;8.07;2.28;;;;;;;;;;6263570;28;20097;-79
2021/12/02 03:13:53;;;;;;;7.47;2.38;;;;;;;;;;6288779;28;20050;-79
2021/12/02 03:16:55;;;;;;;8.65;2.10;;;;;;;;;;6275619;28;20032;-79
2021/12/02 03:19:57;;;;;;;6.28;2.22;;;;;;;;;;6296123;28;20040;-79
2021/12/02 03:22:59;;;;;;;8.32;2.28;;;;;;;;;;6292584;28;20412;-78
2021/12/02 03:26:01;;;;;;;6.93;2.40;;;;;;;;;;6291117;28;20052;-79
2021/12/02 03:29:04;;;;;;;7.97;2.35;;;;;;;;;;6268090;28;20408;-79
2021/12/02 03:32:06;;;;;;;8.73;2.40;;;;;;;;;;6266857;28;20127;-79
2021/12/02 03:35:07;;;;;;;5.72;2.13;;;;;;;;;;6275148;28;20051;-79
2021/12/02 03:38:09;;;;;;;14.35;3.13;;;;;;;;;;6274518;28;20048;-79
2021/12/02 03:41:11;;;;;;;5.10;2.17;;;;;;;;;;6271890;28;20127;-79
2021/12/02 03:44:13;;;;;;;6.53;1.95;;;;;;;;;;6290000;28;20037;-79
2021/12/02 03:47:14;;;;;;;9.65;2.55;;;;;;;;;;6257235;28;20047;-79
2021/12/02 03:50:16;;;;;;;7.78;2.65;;;;;;;;;;6271524;28;20405;-79
2021/12/02 03:53:18;;;;;;;10.07;2.53;;;;;;;;;;6274883;28;20127;-78
2021/12/02 03:56:21;;;;;;;5.53;2.53;;;;;;;;;;6292036;28;20040;-78
2021/12/02 03:59:22;;;;;;;8.00;2.57;;;;;;;;;;6253583;28;20041;-78
2021/12/02 04:02:25;;;;;;;6.18;2.58;;;;;;;;;;6290335;28;20066;-79
2021/12/02 04:05:27;;;;;;;5.50;2.37;;;;;;;;;;6254720;28;20055;-79
2021/12/02 04:08:31;;;;;;;7.93;2.25;;;;;;;;;;6259831;28;20051;-78
2021/12/02 04:17:42;;;;;;;5.95;2.25;;;;;;;;;;6289558;28;20086;-79
2021/12/02 04:20:44;;;;;;;7.80;2.30;;;;;;;;;;6289461;28;20205;-79
2021/12/02 04:23:45;;;;;;;6.40;2.30;;;;;;;;;;6289186;28;20047;-79
2021/12/02 04:26:47;;;;;;;6.80;2.50;;;;;;;;;;6291120;28;20049;-79
2021/12/02 04:29:49;;;;;;;9.15;2.58;;;;;;;;;;6266944;28;20409;-79
2021/12/02 04:32:51;;;;;;;7.57;2.72;;;;;;;;;;6235897;28;20159;-79
2021/12/02 04:35:53;;;;;;;14.43;3.20;;;;;;;;;;6230924;28;20037;-79
2021/12/02 04:38:54;;;;;;;7.03;2.90;;;;;;;;;;6254284;28;20064;-80
2021/12/02 04:41:56;;;;;;;7.72;2.92;;;;;;;;;;6265896;28;20041;-79
2021/12/02 04:44:58;;;;;;;8.35;2.90;;;;;;;;;;6283936;28;20060;-79
2021/12/02 04:48:00;;;;;;;7.28;2.88;;;;;;;;;;6273480;28;20475;-79
2021/12/02 04:51:02;;;;;;;7.10;2.27;;;;;;;;;;6268936;28;20067;-79
2021/12/02 04:54:04;;;;;;;3.75;1.75;;;;;;;;;;6252863;28;20464;-80
2021/12/02 04:57:05;;;;;;;5.78;2.13;;;;;;;;;;6286601;28;20740;-79
2021/12/02 05:00:07;;;;;;;3.70;1.92;;;;;;;;;;6265953;28;20547;-79
2021/12/02 05:03:09;;;;;;;5.55;2.50;;;;;;;;;;6268547;28;20052;-79
2021/12/02 05:06:11;;;;;;;4.68;1.88;;;;;;;;;;6269644;28;20048;-79
2021/12/02 05:09:12;;;;;;;3.25;1.92;;;;;;;;;;6291432;28;20515;-79
2021/12/02 05:12:14;;;;;;;2.78;1.95;;;;;;;;;;6291012;28;20154;-79
2021/12/02 05:15:16;;;;;;;4.78;2.10;;;;;;;;;;6258531;28;20048;-79
2021/12/02 05:18:18;;;;;;;2.83;1.60;;;;;;;;;;6285595;28;20049;-79
2021/12/02 05:21:19;;;;;;;3.78;1.38;;;;;;;;;;6288817;28;20560;-79
2021/12/02 05:24:21;;;;;;;4.10;1.48;;;;;;;;;;6272727;28;20504;-79
2021/12/02 05:27:23;;;;;;;1.50;1.10;;;;;;;;;;6271985;28;21377;-79
2021/12/02 05:30:24;;;;;;;1.40;0.95;;;;;;;;;;6273927;28;20607;-79
2021/12/02 05:33:26;;;;;;;3.13;1.13;;;;;;;;;;6276081;28;20447;-80
2021/12/02 05:36:28;;;;;;;3.03;1.40;;;;;;;;;;6272164;28;20048;-79
2021/12/02 05:39:29;;;;;;;3.78;1.25;;;;;;;;;;6274790;28;20040;-79
2021/12/02 05:42:31;;;;;;;3.17;1.90;;;;;;;;;;6291528;28;20096;-82
2021/12/02 05:45:33;;;;;;;2.78;1.90;;;;;;;;;;6293230;28;20049;-79
2021/12/02 05:48:34;;;;;;;2.65;1.40;;;;;;;;;;6276377;28;20151;-79
2021/12/02 05:51:36;;;;;;;4.13;2.30;;;;;;;;;;6256304;28;20086;-80
2021/12/02 05:54:38;;;;;;;6.22;3.25;;;;;;;;;;6276464;28;20094;-80
2021/12/02 05:57:39;;;;;;;5.72;2.20;;;;;;;;;;6273867;28;20044;-79
2021/12/02 06:00:42;;;;;;;5.53;2.30;;;;;;;;;;6274784;28;20058;-80
2021/12/02 06:03:43;;;;;;;3.78;2.50;;;;;;;;;;6257860;28;20051;-79
2021/12/02 06:06:45;;;;;;;4.38;2.50;;;;;;;;;;6292011;28;20046;-79
2021/12/02 06:09:47;;;;;;;4.38;2.13;;;;;;;;;;6269563;28;20078;-80
2021/12/02 06:12:49;;;;;;;6.03;2.53;;;;;;;;;;6286659;28;20102;-79
2021/12/02 06:15:51;;;;;;;4.68;2.45;;;;;;;;;;6291161;28;20045;-79
2021/12/02 06:18:53;;;;;;;4.25;2.08;;;;;;;;;;6272547;28;20045;-79
2021/12/02 06:21:55;;;;;;;4.00;2.35;;;;;;;;;;6269462;28;20071;-79
2021/12/02 06:28:16;;;;;;;2.47;1.52;;;;;;;;;;6290198;28;20137;-80
2021/12/02 06:31:18;;;;;;;4.28;2.25;;;;;;;;;;6274665;28;20404;-80
2021/12/02 06:34:19;;;;;;;2.92;1.70;;;;;;;;;;6274974;28;20032;-79
2021/12/02 06:37:21;;;;;;;6.53;2.80;;;;;;;;;;6273355;28;20090;-79
2021/12/02 06:40:23;;;;;;;5.38;2.67;;;;;;;;;;6291294;28;20037;-80
2021/12/02 06:43:25;;;;;;;6.18;2.35;;;;;;;;;;6272639;28;20040;-80
2021/12/02 06:46:29;;;;;;;3.13;2.10;;;;;;;;;;6292909;28;20048;-81
2021/12/02 06:49:32;;;;;;;3.20;1.83;;;;;;;;;;6260530;28;20048;-80
2021/12/02 06:52:34;;;;;;;4.20;1.85;;;;;;;;;;6274501;28;20423;-79
2021/12/02 06:55:36;;;;;;;5.35;2.72;;;;;;;;;;6292241;28;20131;-79
2021/12/02 06:58:38;;;;;;;5.88;2.20;;;;;;;;;;6273214;28;20177;-80
2021/12/02 07:01:39;;;;;;;4.32;2.70;;;;;;;;;;6275049;28;20060;-79
2021/12/02 07:04:41;;;;;;;5.68;3.45;;;;;;;;;;6295052;28;20044;-81
2021/12/02 07:07:45;;;;;;;4.00;2.50;;;;;;;;;;6264195;28;20648;-79
2021/12/02 07:10:47;;;;;;;;;;;;;;;;;;6264021;28;20064;-78
2021/12/02 07:13:50;;;;;;;4.93;2.35;;;;;;;;;;6253942;28;20018;-79
2021/12/02 07:16:52;;;;;;;5.95;2.47;;;;;;;;;;6263224;28;20114;-79
2021/12/02 07:19:53;;;;;;;5.63;2.92;;;;;;;;;;6265288;28;20045;-78
2021/12/02 07:22:59;;;;;;;5.32;2.85;;;;;;;;;;6268396;28;20047;-78
2021/12/02 07:26:00;;;;;;;5.18;2.30;;;;;;;;;;6288772;28;20048;-78
2021/12/02 07:29:02;;;;;;;3.30;2.25;;;;;;;;;;6268317;28;20054;-79
2021/12/02 07:32:04;;;;;;;2.70;2.30;;;;;;;;;;6289796;28;20044;-79
2021/12/02 07:35:14;;;;;;;4.00;2.13;;;;;;;;;;6271528;28;20055;-79
2021/12/02 07:38:17;;;;;;;3.42;2.05;;;;;;;;;;6270986;28;20053;-80
2021/12/02 07:41:18;;;;;;;5.80;2.60;;;;;;;;;;6290737;28;20178;-79
2021/12/02 07:44:20;;;;;;;4.18;2.60;;;;;;;;;;6271314;28;20041;-80
2021/12/02 07:47:22;;;;;;;5.28;2.35;;;;;;;;;;6272705;28;20513;-79
2021/12/02 07:50:24;;;;;;;5.60;2.50;;;;;;;;;;6291130;28;20064;-79
2021/12/02 07:53:27;;;;;;;6.57;2.97;;;;;;;;;;6255022;28;20465;-79
2021/12/02 07:56:32;;;;;;;8.02;3.25;;;;;;;;;;6290354;28;20122;-79
2021/12/02 07:59:38;;;;;;;6.82;3.35;;;;;;;;;;6289009;28;20048;-79
2021/12/02 08:02:48;;;;;;;8.65;2.70;;;;;;;;;;6271930;28;20104;-79
2021/12/02 08:05:50;;;;;;;9.15;2.97;;;;;;;;;;6257266;28;20048;-77
2021/12/02 08:09:14;;;;;;;4.97;2.03;;;;;;;;;;6261881;28;20077;-79
2021/12/02 08:12:30;;;;;;;3.80;2.20;;;;;;;;;;6287345;28;20048;-79
2021/12/02 08:15:32;;;;;;;6.53;2.30;;;;;;;;;;6272441;28;20097;-78
2021/12/02 08:18:35;;;;;;;1.95;1.40;;;;;;;;;;6270226;28;20223;-78
2021/12/02 08:21:37;;;;;;;3.80;1.67;;;;;;;;;;6288442;28;20071;-79
2021/12/02 08:24:39;;;;;;;3.22;1.50;;;;;;;;;;6291255;28;20067;-79
2021/12/02 08:27:41;;;;;;;3.13;1.60;;;;;;;;;;6267763;28;20261;-79
2021/12/02 08:30:43;;;;;;;2.28;1.23;;;;;;;;;;6268435;28;20065;-78
2021/12/02 08:33:48;;;;;;;2.28;1.23;;;;;;;;;;6287848;28;20489;-78
2021/12/02 08:36:52;;;;;;;1.83;1.10;;;;;;;;;;6271845;28;20104;-79
2021/12/02 08:39:55;;;;;;;3.70;2.17;;;;;;;;;;6285448;28;20570;-78
2021/12/02 08:42:58;;;;;;;4.95;1.80;;;;;;;;;;6271634;28;20147;-78
2021/12/02 08:45:59;;;;;;;2.33;1.58;;;;;;;;;;6290167;28;20478;-78
2021/12/02 08:49:01;;;;;;;2.95;1.90;;;;;;;;;;6271671;28;20040;-78
2021/12/02 08:52:03;;;;;;;3.50;1.95;;;;;;;;;;6287168;28;20040;-79
2021/12/02 08:55:06;;;;;;;2.72;1.67;;;;;;;;;;6269350;28;20131;-79
2021/12/02 08:58:18;;;;;;;4.25;2.30;;;;;;;;;;6252227;28;20090;-78
2021/12/02 09:01:20;;;;;;;4.53;1.90;;;;;;;;;;6274348;28;20374;-79
2021/12/02 09:04:22;;;;;;;3.50;1.60;;;;;;;;;;6275707;28;20040;-79
2021/12/02 09:07:24;;;;;;;5.40;2.30;;;;;;;;;;6272321;28;20048;-78
2021/12/02 09:10:27;;;;;;;5.45;2.15;;;;;;;;;;6271396;28;20072;-78
2021/12/02 09:13:30;;;;;;;4.07;1.80;;;;;;;;;;6286728;28;20074;-79
2021/12/02 09:16:32;;;;;;;5.65;2.65;;;;;;;;;;6254722;28;20066;-79
2021/12/02 09:19:34;;;;;;;7.37;2.50;;;;;;;;;;6288905;28;20090;-79
2021/12/02 09:22:35;;;;;;;4.97;2.67;;;;;;;;;;6260009;28;20099;-78
2021/12/02 09:25:37;;;;;;;4.13;1.95;;;;;;;;;;6271774;28;20074;-79
2021/12/02 09:28:39;;;;;;;8.48;2.60;;;;;;;;;;6268728;28;20045;-79
2021/12/02 09:31:41;;;;;;;4.95;3.17;;;;;;;;;;6290534;28;20162;-78
2021/12/02 09:34:43;;;;;;;6.80;2.90;;;;;;;;;;6291154;28;20290;-78
2021/12/02 09:37:44;;;;;;;4.40;2.28;;;;;;;;;;6273306;28;20044;-77
2021/12/02 09:40:46;;;;;;;6.03;2.33;;;;;;;;;;6269086;28;20124;-77
2021/12/02 09:43:48;;;;;;;3.97;2.20;;;;;;;;;;6286853;28;20060;-79
2021/12/02 09:46:50;;;;;;;3.63;2.20;;;;;;;;;;6272184;28;20115;-78
2021/12/02 09:49:52;;;;;;;4.85;2.92;;;;;;;;;;6289290;28;20124;-78
2021/12/02 09:53:00;;;;;;;3.00;1.92;;;;;;;;;;6272271;28;20150;-79
2021/12/02 09:59:10;;;;;;;3.50;2.30;;;;;;;;;;6286496;28;20151;-79
2021/12/02 10:02:15;;;;;;;4.53;2.15;;;;;;;;;;6272408;28;20053;-79
2021/12/02 10:05:33;;;;;;;4.40;2.40;;;;;;;;;;6272975;28;20040;-78
2021/12/02 10:08:42;;;;;;;5.13;2.58;;;;;;;;;;6284525;28;20108;-78
2021/12/02 10:11:59;;;;;;;6.15;2.47;;;;;;;;;;6281654;28;20179;-78
2021/12/02 10:15:07;;;;;;;3.60;2.72;;;;;;;;;;6270904;28;20036;-78
2021/12/02 10:18:10;;;;;;;6.35;2.67;;;;;;;;;;6271440;28;20040;-78
2021/12/02 10:21:23;;;;;;;4.75;2.88;;;;;;;;;;6264471;28;20044;-78
2021/12/02 10:24:28;;;;;;;7.78;2.92;;;;;;;;;;6267104;28;20044;-79
2021/12/02 10:27:30;;;;;;;4.82;3.00;;;;;;;;;;6263882;28;20047;-78
2021/12/02 10:30:31;;;;;;;4.68;2.40;;;;;;;;;;6278244;28;20131;-83
2021/12/02 10:33:48;;;;;;;4.55;2.40;;;;;;;;;;6262966;28;20044;-79
2021/12/02 10:36:50;;;;;;;2.72;1.95;;;;;;;;;;6266526;28;20047;-79
2021/12/02 10:40:02;;;;;;;2.80;1.65;;;;;;;;;;6291006;28;20457;-79
2021/12/02 10:43:08;;;;;;;4.15;2.25;;;;;;;;;;6289873;28;20045;-78
2021/12/02 10:46:15;;;;;;;3.38;2.33;;;;;;;;;;6273844;28;20054;-78
2021/12/02 10:49:19;;;;;;;6.82;2.47;;;;;;;;;;6256992;28;20051;-78
2021/12/02 10:52:30;;;;;;;6.95;2.83;;;;;;;;;;6270805;28;20190;-79
2021/12/02 10:55:33;;;;;;;4.28;2.45;;;;;;;;;;6291004;28;20500;-78
2021/12/02 10:58:37;;;;;;;;;;;;;;;;;;6225507;28;20264;-79
2021/12/02 11:01:40;;;;;;;3.58;2.17;;;;;;;;;;6273402;28;19974;-79
2021/12/02 11:04:43;;;;;;;;;;;;;;;;;;6274997;28;20117;-79
2021/12/02 11:07:54;;;;;;;2.80;1.85;;;;;;;;;;6270169;28;19924;-78
2021/12/02 11:10:56;;;;;;;4.55;2.60;;;;;;;;;;6273555;28;20123;-77
2021/12/02 11:13:58;;;;;;;4.00;1.92;;;;;;;;;;6275309;28;20123;-78
2021/12/02 11:17:14;;;;;;;2.17;1.83;;;;;;;;;;6271282;28;20033;-78
2021/12/02 11:20:25;;;;;;;4.90;2.38;;;;;;;;;;6270324;28;20051;-77
2021/12/02 11:23:37;;;;;;;4.32;1.92;;;;;;;;;;6271503;28;20056;-78
2021/12/02 11:26:39;;;;;;;5.10;2.90;;;;;;;;;;6287866;28;20052;-77
2021/12/02 11:29:59;;;;;;;4.78;2.70;;;;;;;;;;6266994;28;20044;-79
2021/12/02 11:33:06;;;;;;;4.15;2.22;;;;;;;;;;6290236;28;20082;-79
2021/12/02 11:36:21;;;;;;;4.10;1.73;;;;;;;;;;6250019;28;20040;-78
2021/12/02 11:39:22;;;;;;;4.25;2.28;;;;;;;;;;6290439;28;20067;-78
2021/12/02 11:42:25;;;;;;;3.30;2.13;;;;;;;;;;6270092;28;21603;-77
2021/12/02 11:45:29;;;;;;;4.63;2.33;;;;;;;;;;6286196;28;20508;-77
2021/12/02 11:48:38;;;;;;;4.63;2.33;;;;;;;;;;6282637;28;20044;-77
2021/12/02 11:51:40;;;;;;;4.80;2.38;;;;;;;;;;6269655;28;20148;-77
2021/12/02 11:54:43;;;;;;;4.25;2.47;;;;;;;;;;6269198;28;20512;-77
2021/12/02 11:57:46;;;;;;;4.95;2.80;;;;;;;;;;6284411;28;20058;-77
2021/12/02 12:00:48;;;;;;;7.20;3.00;;;;;;;;;;6271162;28;20040;-77
2021/12/02 12:03:53;;;;;;;4.83;2.70;;;;;;;;;;6270156;28;20333;-78
2021/12/02 12:07:09;;;;;;;5.43;2.45;;;;;;;;;;6288732;28;20123;-78
2021/12/02 12:10:16;;;;;;;5.57;2.90;;;;;;;;;;6273812;28;20052;-78
2021/12/02 12:13:23;;;;;;;5.15;3.05;;;;;;;;;;6274421;28;20140;-78
2021/12/02 12:16:26;;;;;;;6.72;2.95;;;;;;;;;;6274760;28;20124;-78
2021/12/02 12:19:31;;;;;;;3.40;2.13;;;;;;;;;;6274004;28;20068;-77
2021/12/02 12:22:35;;;;;;;4.95;2.60;;;;;;;;;;6269366;28;20165;-78
2021/12/02 12:25:36;;;;;;;3.70;2.30;;;;;;;;;;6259220;28;20060;-78
2021/12/02 12:29:08;;;;;;;2.97;1.90;;;;;;;;;;6292204;28;20132;-78
2021/12/02 12:32:25;;;;;;;4.55;3.50;;;;;;;;;;6247180;28;20481;-76
2021/12/02 12:38:50;;;;;;;4.13;2.22;;;;;;;;;;6291345;28;20412;-76
2021/12/02 12:42:15;;;;;;;5.50;2.00;;;;;;;;;;6290686;28;20125;-77
2021/12/02 12:45:43;;;;;;;5.00;1.90;;;;;;;;;;6268211;28;20187;-77
2021/12/02 12:48:45;;;;;;;3.72;2.13;;;;;;;;;;6286222;28;20040;-78
2021/12/02 12:51:54;;;;;;;3.38;2.05;;;;;;;;;;6268213;28;20044;-78
2021/12/02 12:55:18;;;;;;;2.80;1.58;;;;;;;;;;6245864;28;20041;-80
2021/12/02 12:58:26;;;;;;;3.10;2.05;;;;;;;;;;6237158;28;20404;-80
2021/12/02 13:01:29;;;;;;;3.03;1.65;;;;;;;;;;6279207;28;20554;-79
2021/12/02 13:04:48;;;;;;;1.90;1.70;;;;;;;;;;6268512;28;20045;-80
2021/12/02 13:08:46;;;;;;;3.50;1.70;;;;;;;;;;6257807;28;20663;-79
2021/12/02 13:12:12;;;;;;;4.15;1.60;;;;;;;;;;6259121;28;20056;-78
2021/12/02 13:15:23;;;;;;;2.78;1.48;;;;;;;;;;6287323;28;20045;-79
2021/12/02 13:18:38;;;;;;;1.67;1.20;;;;;;;;;;6288339;28;20052;-79
2021/12/02 13:21:41;;;;;;;1.95;1.40;;;;;;;;;;6273264;28;20062;-79
2021/12/02 13:25:23;;;;;;;3.95;1.48;;;;;;;;;;6249973;28;20049;-79
2021/12/02 13:28:45;;;;;;;1.85;1.23;;;;;;;;;;6277623;28;20037;-79
2021/12/02 13:31:59;;;;;;;2.60;1.10;;;;;;;;;;6291403;28;20649;-79
2021/12/02 13:35:00;;;;;;;1.30;0.90;;;;;;;;;;6272676;28;20354;-78
2021/12/02 13:38:03;;;;;;;1.67;1.05;;;;;;;;;;6268638;28;20072;-78
2021/12/02 13:41:18;;;;;;;1.98;1.10;;;;;;;;;;6220945;28;20044;-79
2021/12/02 13:44:28;;;;;;;1.38;0.93;;;;;;;;;;6220434;28;20509;-79
2021/12/02 13:47:35;;;;;;;1.02;0.88;;;;;;;;;;6264768;28;20131;-79
2021/12/02 13:50:45;;;;;;;1.38;0.80;;;;;;;;;;6270824;28;20051;-79
2021/12/02 13:53:50;;;;;;;1.73;1.10;;;;;;;;;;6284264;28;20049;-79
2021/12/02 13:56:52;;;;;;;4.10;2.38;;;;;;;;;;6291544;28;20123;-79
2021/12/02 13:59:54;;;;;;;1.98;0.98;;;;;;;;;;6269215;28;20051;-79
2021/12/02 14:03:08;;;;;;;6.10;3.00;;;;;;;;;;6273375;28;20045;-79
2021/12/02 14:06:10;;;;;;;2.33;1.38;;;;;;;;;;6257015;28;20049;-79
2021/12/02 14:09:19;;;;;;;3.35;1.85;;;;;;;;;;6274040;28;20060;-79
2021/12/02 14:12:24;;;;;;;2.80;1.45;;;;;;;;;;6289654;28;20041;-79
2021/12/02 14:15:35;;;;;;;1.45;1.10;;;;;;;;;;6274199;28;20051;-79
2021/12/02 14:18:37;;;;;;;4.65;1.83;;;;;;;;;;6274954;28;20547;-78
2021/12/02 14:21:39;;;;;;;7.95;3.38;;;;;;;;;;6272193;28;21692;-79
2021/12/02 14:24:41;;;;;;;10.75;3.20;;;;;;;;;;6272614;28;20131;-79
2021/12/02 14:27:42;;;;;;;130.93;37.92;;;;;;;;;;6288303;28;20431;-80
2021/12/02 14:30:48;;;;;;;22.13;6.30;;;;;;;;;;6263514;28;21421;-81
2021/12/02 14:33:53;;;;;;;5.55;1.83;;;;;;;;;;6263745;28;20115;-78
2021/12/02 14:36:55;;;;;;;10.32;2.33;;;;;;;;;;6265887;28;20480;-79
2021/12/02 14:39:57;;;;;;;23.52;6.20;;;;;;;;;;6256881;28;20123;-79
2021/12/02 14:43:23;;;;;;;1.67;1.15;;;;;;;;;;6176174;28;20037;-79
2021/12/02 14:46:31;;;;;;;1.25;1.15;;;;;;;;;;6248627;28;20182;-79
2021/12/02 14:49:36;;;;;;;2.40;1.30;;;;;;;;;;6275365;28;20036;-81
2021/12/02 14:52:37;;;;;;;9.68;3.30;;;;;;;;;;6250119;28;20064;-82
2021/12/02 14:55:42;;;;;;;337.60;69.88;;;;;;;;;;6294810;28;20543;-80
2021/12/02 14:59:04;;;;;;;2.78;1.30;;;;;;;;;;6295853;28;20032;-80
2021/12/02 15:02:08;;;;;;;72.63;19.50;;;;;;;;;;6260046;28;20044;-80
2021/12/02 15:05:23;;;;;;;4.75;2.30;;;;;;;;;;6291634;28;20051;-79
2021/12/02 15:08:31;;;;;;;3.10;1.25;;;;;;;;;;6275627;28;20493;-80
2021/12/02 15:11:33;;;;;;;6.90;2.70;;;;;;;;;;6281549;28;20520;-79
2021/12/02 15:14:38;;;;;;;7.00;3.53;;;;;;;;;;6280548;28;20072;-79
2021/12/02 15:17:40;;;;;;;11.27;6.78;;;;;;;;;;6275897;28;20060;-79
2021/12/02 15:20:46;;;;;;;15.20;8.23;;;;;;;;;;6290661;28;20044;-80
2021/12/02 15:23:51;;;;;;;3.35;1.98;;;;;;;;;;6294233;28;20114;-80
2021/12/02 15:27:09;;;;;;;20.80;8.32;;;;;;;;;;6245898;28;20394;-79
2021/12/02 15:30:22;;;;;;;4.55;1.90;;;;;;;;;;6216199;28;20306;-79
2021/12/02 15:33:31;;;;;;;4.43;1.60;;;;;;;;;;6276453;28;20127;-79
2021/12/02 15:36:33;;;;;;;29.98;9.25;;;;;;;;;;6261515;28;20055;-79
2021/12/02 15:39:34;;;;;;;6.05;2.38;;;;;;;;;;6249678;28;20056;-79
2021/12/02 15:42:45;;;;;;;7.22;3.00;;;;;;;;;;6262714;28;20060;-80
2021/12/02 15:46:08;;;;;;;5.10;2.75;;;;;;;;;;6219827;28;20537;-80
2021/12/02 15:49:12;;;;;;;12.27;5.10;;;;;;;;;;6247775;28;20055;-79
2021/12/02 15:52:14;;;;;;;16.67;7.68;;;;;;;;;;6231630;28;20063;-80
2021/12/02 15:55:16;;;;;;;23.83;10.85;;;;;;;;;;6233104;28;20122;-80
2021/12/02 15:58:22;;;;;;;10.85;6.20;;;;;;;;;;6143060;28;20102;-80
2021/12/02 16:01:50;;;;;;;22.67;9.85;;;;;;;;;;6214008;28;20045;-80
2021/12/02 16:05:08;;;;;;;9.02;4.30;;;;;;;;;;6229768;28;20045;-80
2021/12/02 16:08:20;;;;;;;32.78;11.38;;;;;;;;;;6236589;28;20067;-80
2021/12/02 16:11:40;;;;;;;12.80;4.97;;;;;;;;;;6268060;28;20040;-80
2021/12/02 16:14:42;;;;;;;10.05;4.53;;;;;;;;;;6247943;28;20049;-80
2021/12/02 16:17:44;;;;;;;24.45;8.32;;;;;;;;;;6244638;28;20040;-80
2021/12/02 16:20:46;;;;;;;30.08;10.52;;;;;;;;;;6273144;28;20071;-80
2021/12/02 16:23:58;;;;;;;23.90;9.23;;;;;;;;;;6255091;28;20068;-81
2021/12/02 16:27:00;;;;;;;77.45;24.90;;;;;;;;;;6202543;28;20068;-80
2021/12/02 16:30:05;;;;;;;30.23;11.18;;;;;;;;;;6271773;28;20090;-80
2021/12/02 16:33:06;;;;;;;38.10;12.10;;;;;;;;;;6260025;28;20079;-80
2021/12/02 16:36:12;;;;;;;9.90;4.95;;;;;;;;;;6258743;28;20044;-79
2021/12/02 16:39:14;;;;;;;49.22;17.73;;;;;;;;;;6271659;28;20044;-80
2021/12/02 16:42:15;;;;;;;11.77;5.28;;;;;;;;;;6289603;28;20072;-80
2021/12/02 16:45:19;;;;;;;19.58;7.70;;;;;;;;;;6256886;28;20047;-80
2021/12/02 16:48:21;;;;;;;16.70;6.53;;;;;;;;;;6246546;28;20041;-80
2021/12/02 16:51:30;;;;;;;12.07;5.50;;;;;;;;;;6290377;28;20048;-80
2021/12/02 16:54:33;;;;;;;7.95;4.07;;;;;;;;;;6273531;28;20037;-81
2021/12/02 16:57:35;;;;;;;8.43;4.07;;;;;;;;;;6273193;28;20662;-80
2021/12/02 17:00:43;;;;;;;11.32;5.40;;;;;;;;;;6258450;28;20068;-79
2021/12/02 17:03:59;;;;;;;14.60;7.10;;;;;;;;;;6293708;28;20075;-80
2021/12/02 17:07:01;;;;;;;15.73;7.87;;;;;;;;;;6250255;28;20493;-80
2021/12/02 17:10:06;;;;;;;12.02;6.28;;;;;;;;;;6296616;28;20096;-80
2021/12/02 17:13:13;;;;;;;9.13;4.80;;;;;;;;;;6259664;28;20090;-80
2021/12/02 17:16:15;;;;;;;10.80;5.53;;;;;;;;;;6269080;28;20502;-80
2021/12/02 17:19:17;;;;;;;10.38;4.95;;;;;;;;;;6294576;28;20496;-81
2021/12/02 17:22:21;;;;;;;9.50;5.30;;;;;;;;;;6226118;28;20068;-80
2021/12/02 17:25:25;;;;;;;8.85;4.63;;;;;;;;;;6278040;28;20064;-80
2021/12/02 17:28:26;;;;;;;10.68;5.18;;;;;;;;;;6276192;28;20104;-81
2021/12/02 17:31:28;;;;;;;9.10;4.85;;;;;;;;;;6276863;28;20045;-81
2021/12/02 17:34:33;;;;;;;9.38;4.63;;;;;;;;;;6259182;28;20044;-80
2021/12/02 17:37:36;;;;;;;10.38;5.18;;;;;;;;;;6295230;28;20071;-80
2021/12/02 17:40:42;;;;;;;9.30;4.85;;;;;;;;;;6243934;28;20128;-80
2021/12/02 17:43:50;;;;;;;8.90;4.35;;;;;;;;;;6272580;28;20394;-81
2021/12/02 17:46:57;;;;;;;8.40;4.57;;;;;;;;;;6251148;28;20051;-80
2021/12/02 17:50:02;;;;;;;7.72;3.75;;;;;;;;;;6291967;28;20071;-81
2021/12/02 17:53:05;;;;;;;10.05;4.80;;;;;;;;;;6279021;28;20109;-80
2021/12/02 17:56:07;;;;;;;7.35;3.25;;;;;;;;;;6281701;28;20123;-81
2021/12/02 17:59:10;;;;;;;6.43;3.47;;;;;;;;;;6250999;28;20144;-81
2021/12/02 18:02:15;;;;;;;8.68;3.60;;;;;;;;;;6279561;28;20127;-81
2021/12/02 18:05:19;;;;;;;9.85;4.15;;;;;;;;;;6259935;28;20044;-81
2021/12/02 18:08:21;;;;;;;7.20;3.55;;;;;;;;;;6273886;28;20105;-81
2021/12/02 18:11:23;;;;;;;11.48;4.70;;;;;;;;;;6273611;28;20084;-81
2021/12/02 18:14:28;;;;;;;11.02;5.07;;;;;;;;;;6290834;28;20044;-80
2021/12/02 18:17:29;;;;;;;12.85;6.32;;;;;;;;;;6228743;28;20279;-80
2021/12/02 18:20:38;;;;;;;12.52;5.53;;;;;;;;;;6205113;28;20067;-80
2021/12/02 18:23:41;;;;;;;9.68;5.10;;;;;;;;;;6223133;28;20571;-80
2021/12/02 18:26:43;;;;;;;8.23;4.38;;;;;;;;;;6273829;28;20068;-81
2021/12/02 18:29:44;;;;;;;7.35;4.05;;;;;;;;;;6275512;28;20054;-81
2021/12/02 18:32:49;;;;;;;8.52;4.20;;;;;;;;;;6294312;28;20178;-81
2021/12/02 18:35:51;;;;;;;8.90;4.10;;;;;;;;;;6275586;28;20045;-80
2021/12/02 18:38:53;;;;;;;10.20;4.85;;;;;;;;;;6276938;28;20118;-81
2021/12/02 18:41:55;;;;;;;9.30;4.65;;;;;;;;;;6234698;28;20131;-81
2021/12/02 18:44:58;;;;;;;8.20;4.65;;;;;;;;;;6270120;28;20044;-80
2021/12/02 18:48:08;;;;;;;9.15;4.78;;;;;;;;;;6263895;28;20130;-80
2021/12/02 18:51:10;;;;;;;9.40;4.75;;;;;;;;;;6290694;28;20122;-80